Time;durP1;ratioP1;P1;durP2;ratioP2;P2;SDS_P1;SDS_P2;PMS_P1;PMS_P2;Temp;Humidity;BMP_temperature;BMP_pressure;BME280_temperature;BME280_humidity;BME280_pressure;Samples;Min_cycle;Max_cycle;Signal;HPM_P1;HPM_P2
2022/05/13 00:02:16;;;;;;;1999.90;999.90;;;;;;;;;;4953678;29;20359;-68
2022/05/13 00:05:01;;;;;;;1999.90;999.90;;;;;;;;;;4950619;29;20216;-68
2022/05/13 00:07:47;;;;;;;1999.90;999.90;;;;;;;;;;4947578;29;20219;-69
2022/05/13 00:10:31;;;;;;;1999.90;999.90;;;;;;;;;;4949336;29;20490;-68
2022/05/13 00:13:16;;;;;;;1999.90;999.90;;;;;;;;;;4953950;29;20732;-69
2022/05/13 00:16:01;;;;;;;1999.90;999.90;;;;;;;;;;4953612;29;20726;-68
2022/05/13 00:18:48;;;;;;;1999.90;999.90;;;;;;;;;;4935950;29;20214;-70
2022/05/13 00:21:33;;;;;;;1999.90;999.90;;;;;;;;;;4945609;29;20216;-68
2022/05/13 00:24:18;;;;;;;1999.90;999.90;;;;;;;;;;4953617;29;20322;-68
2022/05/13 00:27:03;;;;;;;1999.90;999.90;;;;;;;;;;4953619;29;20207;-70
2022/05/13 00:29:48;;;;;;;1999.90;999.90;;;;;;;;;;4953411;29;20212;-68
2022/05/13 00:32:33;;;;;;;1999.90;999.90;;;;;;;;;;4953664;29;20232;-69
2022/05/13 00:35:21;;;;;;;1999.90;999.90;;;;;;;;;;4956141;28;20311;-69
2022/05/13 00:38:06;;;;;;;1999.90;999.90;;;;;;;;;;4956700;29;20206;-69
2022/05/13 00:40:51;;;;;;;1999.90;999.90;;;;;;;;;;4957119;29;20335;-69
2022/05/13 00:43:41;;;;;;;1999.90;999.90;;;;;;;;;;4956967;29;20235;-70
2022/05/13 00:46:28;;;;;;;1999.90;999.90;;;;;;;;;;4952547;29;20208;-69
2022/05/13 00:49:15;;;;;;;1999.90;999.90;;;;;;;;;;4939429;29;20216;-69
2022/05/13 00:52:02;;;;;;;1999.90;999.90;;;;;;;;;;4937901;29;20639;-67
2022/05/13 00:54:47;;;;;;;1999.90;999.90;;;;;;;;;;4937977;29;20220;-69
2022/05/13 00:57:35;;;;;;;1999.90;999.90;;;;;;;;;;4932884;29;20579;-69
2022/05/13 01:00:22;;;;;;;1999.90;999.90;;;;;;;;;;4948565;29;20209;-68
2022/05/13 01:03:07;;;;;;;1999.90;999.90;;;;;;;;;;4940312;29;20732;-68
2022/05/13 01:05:55;;;;;;;1999.90;999.90;;;;;;;;;;4918612;29;20208;-68
2022/05/13 01:08:41;;;;;;;1999.90;999.90;;;;;;;;;;4918452;29;20221;-69
2022/05/13 01:11:28;;;;;;;1999.90;999.90;;;;;;;;;;4918433;29;20585;-69
2022/05/13 01:14:15;;;;;;;1999.90;999.90;;;;;;;;;;4918397;29;20230;-69
2022/05/13 01:20:20;;;;;;;1999.90;999.90;;;;;;;;;;4916613;29;25085;-68
2022/05/13 01:23:09;;;;;;;1999.90;999.90;;;;;;;;;;4917850;29;20248;-68
2022/05/13 01:25:56;;;;;;;1999.90;999.90;;;;;;;;;;4943372;29;20228;-69
2022/05/13 01:28:42;;;;;;;1999.90;999.90;;;;;;;;;;4931113;29;20221;-70
2022/05/13 01:31:29;;;;;;;1999.90;999.90;;;;;;;;;;4939765;29;20938;-68
2022/05/13 01:34:15;;;;;;;1999.90;999.90;;;;;;;;;;4936986;29;20277;-69
2022/05/13 01:36:59;;;;;;;1999.90;999.90;;;;;;;;;;4937157;29;20285;-69
2022/05/13 01:39:46;;;;;;;1999.90;999.90;;;;;;;;;;4938310;29;20715;-68
2022/05/13 01:42:31;;;;;;;1999.90;999.90;;;;;;;;;;4936721;29;20336;-69
2022/05/13 01:45:16;;;;;;;1999.90;999.90;;;;;;;;;;4936829;29;20208;-69
2022/05/13 01:48:01;;;;;;;1999.90;999.90;;;;;;;;;;4936512;29;20293;-69
2022/05/13 01:50:46;;;;;;;1999.90;999.90;;;;;;;;;;4936742;29;20271;-69
2022/05/13 01:53:32;;;;;;;1999.90;999.90;;;;;;;;;;4936701;29;20344;-69
2022/05/13 01:56:18;;;;;;;1999.90;999.90;;;;;;;;;;4932683;29;20336;-69
2022/05/13 01:59:03;;;;;;;1999.90;999.90;;;;;;;;;;4941253;29;20207;-69
2022/05/13 02:01:48;;;;;;;1999.90;999.90;;;;;;;;;;4955956;29;20208;-69
2022/05/13 02:04:33;;;;;;;1999.90;999.90;;;;;;;;;;4941153;29;20219;-68
2022/05/13 02:07:17;;;;;;;1999.90;999.90;;;;;;;;;;4936195;29;20208;-69
2022/05/13 02:10:02;;;;;;;1999.90;999.90;;;;;;;;;;4944152;29;20592;-69
2022/05/13 02:12:49;;;;;;;1999.90;999.90;;;;;;;;;;4936379;29;20240;-68
2022/05/13 02:15:33;;;;;;;1999.90;999.90;;;;;;;;;;4936387;29;20707;-69
2022/05/13 02:18:19;;;;;;;1999.90;999.90;;;;;;;;;;4930495;29;20319;-68
2022/05/13 02:21:04;;;;;;;1999.90;999.90;;;;;;;;;;4944110;29;20236;-70
2022/05/13 02:23:49;;;;;;;1999.90;999.90;;;;;;;;;;4935773;29;20235;-69
2022/05/13 02:26:34;;;;;;;1999.90;999.90;;;;;;;;;;4936131;29;20212;-69
2022/05/13 02:29:20;;;;;;;1999.90;999.90;;;;;;;;;;4935555;29;20207;-70
2022/05/13 02:32:05;;;;;;;1999.90;999.90;;;;;;;;;;4936034;29;20231;-70
2022/05/13 02:34:50;;;;;;;1999.90;999.90;;;;;;;;;;4936188;29;20689;-69
2022/05/13 02:37:36;;;;;;;1999.90;999.90;;;;;;;;;;4935795;29;20214;-70
2022/05/13 02:41:11;;;;;;;1999.90;999.90;;;;;;;;;;4936015;29;20213;-69
2022/05/13 02:43:26;;;;;;;1999.90;999.90;;;;;;;;;;4935393;29;20744;-69
2022/05/13 02:46:13;;;;;;;1999.90;999.90;;;;;;;;;;4935849;29;20212;-69
2022/05/13 02:48:58;;;;;;;1999.90;999.90;;;;;;;;;;4931541;29;20801;-69
2022/05/13 02:51:45;;;;;;;1999.90;999.90;;;;;;;;;;4946755;29;20320;-68
2022/05/13 02:54:30;;;;;;;1999.90;999.90;;;;;;;;;;4953814;29;20421;-70
2022/05/13 02:57:15;;;;;;;1999.90;999.90;;;;;;;;;;4954000;28;20306;-68
2022/05/13 03:00:00;;;;;;;1999.90;999.90;;;;;;;;;;4941467;29;20290;-69
2022/05/13 03:02:46;;;;;;;1999.90;999.90;;;;;;;;;;4952650;29;20224;-70
2022/05/13 03:05:31;;;;;;;1999.90;999.90;;;;;;;;;;4954577;29;20211;-69
2022/05/13 03:08:16;;;;;;;1999.90;999.90;;;;;;;;;;4954296;29;20718;-69
2022/05/13 03:11:01;;;;;;;1999.90;999.90;;;;;;;;;;4954524;29;20361;-68
2022/05/13 03:13:46;;;;;;;1999.90;999.90;;;;;;;;;;4954443;29;20239;-69
2022/05/13 03:16:31;;;;;;;1999.90;999.90;;;;;;;;;;4954514;29;20298;-68
2022/05/13 03:19:18;;;;;;;1999.90;999.90;;;;;;;;;;4953835;29;20211;-69
2022/05/13 03:22:03;;;;;;;1999.90;999.90;;;;;;;;;;4954358;29;20291;-69
2022/05/13 03:24:49;;;;;;;1999.90;999.90;;;;;;;;;;4936025;29;20600;-69
2022/05/13 03:27:34;;;;;;;1999.90;999.90;;;;;;;;;;4951024;29;20206;-69
2022/05/13 03:30:21;;;;;;;1999.90;999.90;;;;;;;;;;4942655;29;20282;-69
2022/05/13 03:33:07;;;;;;;1999.90;999.90;;;;;;;;;;4916173;29;20236;-69
2022/05/13 03:35:53;;;;;;;1999.90;999.90;;;;;;;;;;4914359;29;20876;-69
2022/05/13 03:38:40;;;;;;;1999.90;999.90;;;;;;;;;;4923745;29;20217;-69
2022/05/13 03:41:25;;;;;;;1999.90;999.90;;;;;;;;;;4936290;29;20219;-68
2022/05/13 03:44:10;;;;;;;1999.90;999.90;;;;;;;;;;4938785;29;20239;-69
2022/05/13 03:46:55;;;;;;;1999.90;999.90;;;;;;;;;;4938822;29;20676;-68
2022/05/13 03:49:40;;;;;;;1999.90;999.90;;;;;;;;;;4936518;29;20219;-68
2022/05/13 03:52:26;;;;;;;1999.90;999.90;;;;;;;;;;4947405;29;20321;-69
2022/05/13 03:55:11;;;;;;;1999.90;999.90;;;;;;;;;;4917225;29;20291;-69
2022/05/13 03:57:58;;;;;;;1999.90;999.90;;;;;;;;;;4920612;29;20217;-68
2022/05/13 04:00:45;;;;;;;1999.90;999.90;;;;;;;;;;4929098;29;20240;-69
2022/05/13 04:03:30;;;;;;;1999.90;999.90;;;;;;;;;;4944631;29;20237;-67
2022/05/13 04:09:19;;;;;;;1999.90;999.90;;;;;;;;;;4944101;28;20259;-65
2022/05/13 04:18:10;;;;;;;1999.90;999.90;;;;;;;;;;4934315;29;20485;-69
2022/05/13 04:20:55;;;;;;;1999.90;999.90;;;;;;;;;;4937141;29;20213;-71
2022/05/13 04:23:41;;;;;;;1999.90;999.90;;;;;;;;;;4935685;29;20236;-68
2022/05/13 04:26:27;;;;;;;1999.90;999.90;;;;;;;;;;4936876;29;20268;-65
2022/05/13 04:29:12;;;;;;;1999.90;999.90;;;;;;;;;;4936574;29;20208;-69
2022/05/13 04:31:57;;;;;;;1999.90;999.90;;;;;;;;;;4936930;29;20252;-66
2022/05/13 04:34:42;;;;;;;1999.90;999.90;;;;;;;;;;4936701;29;20260;-68
2022/05/13 04:37:27;;;;;;;1999.90;999.90;;;;;;;;;;4936688;29;20213;-68
2022/05/13 04:40:13;;;;;;;1999.90;999.90;;;;;;;;;;4936746;29;20714;-64
2022/05/13 04:43:00;;;;;;;1999.90;999.90;;;;;;;;;;4930138;29;20232;-66
2022/05/13 04:45:46;;;;;;;1999.90;999.90;;;;;;;;;;4935970;29;20428;-69
2022/05/13 04:48:31;;;;;;;1999.90;999.90;;;;;;;;;;4936517;29;20209;-68
2022/05/13 04:51:17;;;;;;;1999.90;999.90;;;;;;;;;;4936449;29;20707;-68
2022/05/13 04:54:02;;;;;;;1999.90;999.90;;;;;;;;;;4936032;29;20225;-68
2022/05/13 04:56:47;;;;;;;1999.90;999.90;;;;;;;;;;4936636;29;20214;-66
2022/05/13 04:59:34;;;;;;;1999.90;999.90;;;;;;;;;;4936030;29;20632;-65
2022/05/13 05:02:19;;;;;;;1999.90;999.90;;;;;;;;;;4946156;29;20276;-66
2022/05/13 05:05:06;;;;;;;1999.90;999.90;;;;;;;;;;4947293;29;20689;-65
2022/05/13 05:07:51;;;;;;;1999.90;999.90;;;;;;;;;;4937535;29;20216;-66
2022/05/13 05:10:36;;;;;;;1999.90;999.90;;;;;;;;;;4937658;29;20213;-65
2022/05/13 05:13:23;;;;;;;1999.90;999.90;;;;;;;;;;4937899;29;20229;-65
2022/05/13 05:16:09;;;;;;;1999.90;999.90;;;;;;;;;;4937352;29;20333;-65
2022/05/13 05:18:54;;;;;;;1999.90;999.90;;;;;;;;;;4917987;29;20222;-66
2022/05/13 05:21:39;;;;;;;1999.90;999.90;;;;;;;;;;4918170;29;20214;-66
2022/05/13 05:24:24;;;;;;;1999.90;999.90;;;;;;;;;;4917622;29;20520;-66
2022/05/13 05:27:11;;;;;;;1999.90;999.90;;;;;;;;;;4917310;29;20438;-66
2022/05/13 05:29:56;;;;;;;1999.90;999.90;;;;;;;;;;4917806;29;20314;-66
2022/05/13 05:32:43;;;;;;;1999.90;999.90;;;;;;;;;;4918201;29;20583;-66
2022/05/13 05:35:28;;;;;;;1999.90;999.90;;;;;;;;;;4918106;29;20704;-66
2022/05/13 05:38:13;;;;;;;1999.90;999.90;;;;;;;;;;4917933;29;20206;-66
2022/05/13 05:40:59;;;;;;;1999.90;999.90;;;;;;;;;;4917982;29;20206;-66
2022/05/13 05:43:44;;;;;;;1999.90;999.90;;;;;;;;;;4925657;29;20232;-67
2022/05/13 05:46:29;;;;;;;1999.90;999.90;;;;;;;;;;4936076;29;20221;-66
2022/05/13 05:49:15;;;;;;;1999.90;999.90;;;;;;;;;;4944148;29;20212;-66
2022/05/13 05:52:00;;;;;;;1999.90;999.90;;;;;;;;;;4955940;29;20205;-66
2022/05/13 05:57:56;;;;;;;1999.90;999.90;;;;;;;;;;4942489;29;20244;-65
2022/05/13 06:00:43;;;;;;;1999.90;999.90;;;;;;;;;;4929638;29;20206;-67
2022/05/13 06:03:28;;;;;;;1999.90;999.90;;;;;;;;;;4945742;29;20229;-67
2022/05/13 06:06:14;;;;;;;1999.90;999.90;;;;;;;;;;4938332;29;20261;-66
2022/05/13 06:08:59;;;;;;;1999.90;999.90;;;;;;;;;;4943329;29;20502;-66
2022/05/13 06:11:44;;;;;;;1999.90;999.90;;;;;;;;;;4931374;29;20282;-66
2022/05/13 06:14:29;;;;;;;1999.90;999.90;;;;;;;;;;4947440;29;20755;-66
2022/05/13 06:17:14;;;;;;;1999.90;999.90;;;;;;;;;;4945500;29;20577;-66
2022/05/13 06:20:02;;;;;;;1999.90;999.90;;;;;;;;;;4943919;29;20820;-66
2022/05/13 06:22:48;;;;;;;1999.90;999.90;;;;;;;;;;4938780;29;20802;-67
2022/05/13 06:25:33;;;;;;;1999.90;999.90;;;;;;;;;;4936500;29;20282;-66
2022/05/13 06:28:18;;;;;;;1999.90;999.90;;;;;;;;;;4933473;29;20205;-66
2022/05/13 06:31:03;;;;;;;1999.90;999.90;;;;;;;;;;4930734;29;20250;-66
2022/05/13 06:33:48;;;;;;;1999.90;999.90;;;;;;;;;;4934120;29;20233;-66
2022/05/13 06:36:34;;;;;;;1999.90;999.90;;;;;;;;;;4935256;29;20209;-66
2022/05/13 06:39:20;;;;;;;1999.90;999.90;;;;;;;;;;4934224;29;20221;-66
2022/05/13 06:42:06;;;;;;;1999.90;999.90;;;;;;;;;;4937492;29;20747;-63
2022/05/13 06:44:51;;;;;;;1999.90;999.90;;;;;;;;;;4933831;29;20736;-64
2022/05/13 06:47:36;;;;;;;1999.90;999.90;;;;;;;;;;4931881;29;20318;-66
2022/05/13 06:50:22;;;;;;;1999.90;999.90;;;;;;;;;;4933583;29;20297;-66
2022/05/13 06:53:07;;;;;;;1999.90;999.90;;;;;;;;;;4934433;29;20229;-66
2022/05/13 06:55:53;;;;;;;1999.90;999.90;;;;;;;;;;4934297;29;20208;-66
2022/05/13 06:58:38;;;;;;;1999.90;999.90;;;;;;;;;;4933320;29;20257;-66
2022/05/13 07:01:23;;;;;;;1999.90;999.90;;;;;;;;;;4934336;29;20426;-66
2022/05/13 07:04:08;;;;;;;1999.90;999.90;;;;;;;;;;4916364;29;20285;-66
2022/05/13 07:06:53;;;;;;;1999.90;999.90;;;;;;;;;;4914999;29;20635;-66
2022/05/13 07:09:37;;;;;;;1999.90;999.90;;;;;;;;;;4915121;29;20214;-66
2022/05/13 07:12:24;;;;;;;1999.90;999.90;;;;;;;;;;4929980;29;20325;-66
2022/05/13 07:15:10;;;;;;;1999.90;999.90;;;;;;;;;;4934103;29;20253;-66
2022/05/13 07:17:55;;;;;;;1999.90;999.90;;;;;;;;;;4933425;29;20229;-66
2022/05/13 07:20:40;;;;;;;1999.90;999.90;;;;;;;;;;4934006;29;20347;-66
2022/05/13 07:23:25;;;;;;;1999.90;999.90;;;;;;;;;;4933644;29;20250;-66
2022/05/13 07:26:10;;;;;;;1999.90;999.90;;;;;;;;;;4934050;29;20253;-66
2022/05/13 07:28:57;;;;;;;1999.90;999.90;;;;;;;;;;4930686;29;20205;-64
2022/05/13 07:31:42;;;;;;;1999.90;999.90;;;;;;;;;;4934024;29;20213;-66
2022/05/13 07:34:27;;;;;;;1999.90;999.90;;;;;;;;;;4931547;29;20228;-66
2022/05/13 07:37:12;;;;;;;1999.90;999.90;;;;;;;;;;4930295;29;20220;-66
2022/05/13 07:43:00;;;;;;;1999.90;999.90;;;;;;;;;;4931866;29;20410;-66
2022/05/13 07:45:46;;;;;;;1999.90;999.90;;;;;;;;;;4934091;29;20222;-66
2022/05/13 07:48:31;;;;;;;1999.90;999.90;;;;;;;;;;4934040;29;20762;-67
2022/05/13 07:51:16;;;;;;;1999.90;999.90;;;;;;;;;;4934094;29;20213;-66
2022/05/13 07:54:01;;;;;;;1999.90;999.90;;;;;;;;;;4931886;29;20263;-66
2022/05/13 07:56:46;;;;;;;1999.90;999.90;;;;;;;;;;4933511;29;20224;-66
2022/05/13 07:59:32;;;;;;;1999.90;999.90;;;;;;;;;;4930083;29;20215;-66
2022/05/13 08:02:18;;;;;;;1999.90;999.90;;;;;;;;;;4931765;29;20229;-64
2022/05/13 08:05:04;;;;;;;1999.90;999.90;;;;;;;;;;4933452;29;20223;-64
2022/05/13 08:07:49;;;;;;;1999.90;999.90;;;;;;;;;;4933175;29;20417;-64
2022/05/13 08:10:34;;;;;;;1999.90;999.90;;;;;;;;;;4933660;29;20296;-66
2022/05/13 08:13:19;;;;;;;1999.90;999.90;;;;;;;;;;4929002;29;20231;-67
2022/05/13 08:16:05;;;;;;;1999.90;999.90;;;;;;;;;;4941384;29;20212;-67
2022/05/13 08:18:52;;;;;;;1999.90;999.90;;;;;;;;;;4953367;29;20208;-66
2022/05/13 08:21:37;;;;;;;1999.90;999.90;;;;;;;;;;4919222;29;20525;-67
2022/05/13 08:24:23;;;;;;;1999.90;999.90;;;;;;;;;;4926469;29;20249;-66
2022/05/13 08:27:10;;;;;;;1999.90;999.90;;;;;;;;;;4931134;29;20217;-67
2022/05/13 08:29:54;;;;;;;1999.90;999.90;;;;;;;;;;4929253;29;20217;-66
2022/05/13 08:32:39;;;;;;;1999.90;999.90;;;;;;;;;;4930628;29;20758;-66
2022/05/13 08:35:26;;;;;;;1999.90;999.90;;;;;;;;;;4929477;29;20217;-66
2022/05/13 08:38:11;;;;;;;1999.90;999.90;;;;;;;;;;4931060;29;20237;-67
2022/05/13 08:41:07;;;;;;;1999.90;999.90;;;;;;;;;;4931673;29;20219;-67
2022/05/13 08:43:53;;;;;;;1999.90;999.90;;;;;;;;;;4926315;29;20621;-67
2022/05/13 08:46:39;;;;;;;1999.90;999.90;;;;;;;;;;4931922;29;20219;-67
2022/05/13 08:49:28;;;;;;;1999.90;999.90;;;;;;;;;;4934194;29;20422;-67
2022/05/13 08:55:23;;;;;;;1999.90;999.90;;;;;;;;;;4933842;29;20569;-67
2022/05/13 08:58:12;;;;;;;1999.90;999.90;;;;;;;;;;4935332;29;20692;-68
2022/05/13 09:00:59;;;;;;;1999.90;999.90;;;;;;;;;;4936158;29;20421;-68
2022/05/13 09:03:47;;;;;;;1999.90;999.90;;;;;;;;;;4936268;29;20737;-68
2022/05/13 09:06:37;;;;;;;1999.90;999.90;;;;;;;;;;4933911;29;20226;-67
2022/05/13 09:09:23;;;;;;;1999.90;999.90;;;;;;;;;;4937241;29;20251;-66
2022/05/13 09:12:11;;;;;;;1999.90;999.90;;;;;;;;;;4935032;29;20266;-66
2022/05/13 09:15:00;;;;;;;1999.90;999.90;;;;;;;;;;4947844;29;20263;-67
2022/05/13 09:17:49;;;;;;;1999.90;999.90;;;;;;;;;;4946786;29;20358;-67
2022/05/13 09:20:39;;;;;;;1999.90;999.90;;;;;;;;;;4941035;29;20281;-66
2022/05/13 09:23:24;;;;;;;1999.90;999.90;;;;;;;;;;4948183;29;20239;-67
2022/05/13 09:26:13;;;;;;;1999.90;999.90;;;;;;;;;;4956164;29;20226;-67
2022/05/13 09:29:03;;;;;;;1999.90;999.90;;;;;;;;;;4946994;29;20254;-67
2022/05/13 09:32:00;;;;;;;1999.90;999.90;;;;;;;;;;4940967;29;20291;-67
2022/05/13 09:34:50;;;;;;;1999.90;999.90;;;;;;;;;;4926313;29;20838;-66
2022/05/13 09:37:37;;;;;;;1999.90;999.90;;;;;;;;;;4918262;29;20201;-67
2022/05/13 09:40:23;;;;;;;1999.90;999.90;;;;;;;;;;4928447;29;20220;-67
2022/05/13 09:43:10;;;;;;;1999.90;999.90;;;;;;;;;;4934678;29;21034;-66
2022/05/13 09:46:02;;;;;;;1999.90;999.90;;;;;;;;;;4944025;29;20242;-66
2022/05/13 09:48:53;;;;;;;1999.90;999.90;;;;;;;;;;4955704;29;20777;-66
2022/05/13 09:51:39;;;;;;;1999.90;999.90;;;;;;;;;;4917929;29;20245;-66
2022/05/13 09:54:26;;;;;;;1999.90;999.90;;;;;;;;;;4943576;29;20599;-66
2022/05/13 09:57:14;;;;;;;1999.90;999.90;;;;;;;;;;4943328;29;20214;-67
2022/05/13 10:00:02;;;;;;;1999.90;999.90;;;;;;;;;;4928496;29;20300;-67
2022/05/13 10:02:48;;;;;;;1999.90;999.90;;;;;;;;;;4945708;29;20738;-67
2022/05/13 10:05:34;;;;;;;1999.90;999.90;;;;;;;;;;4925919;29;20251;-67
2022/05/13 10:08:21;;;;;;;1999.90;999.90;;;;;;;;;;4937560;29;20216;-67
2022/05/13 10:14:26;;;;;;;1999.90;999.90;;;;;;;;;;4944077;29;20221;-66
2022/05/13 10:17:16;;;;;;;1999.90;999.90;;;;;;;;;;4940793;29;20243;-67
2022/05/13 10:20:02;;;;;;;1999.90;999.90;;;;;;;;;;4946034;29;20212;-67
2022/05/13 10:22:49;;;;;;;1999.90;999.90;;;;;;;;;;4947192;29;20730;-67
2022/05/13 10:25:36;;;;;;;1999.90;999.90;;;;;;;;;;4955159;29;20360;-67
2022/05/13 10:28:24;;;;;;;1999.90;999.90;;;;;;;;;;4953648;29;20412;-67
2022/05/13 10:31:10;;;;;;;1999.90;999.90;;;;;;;;;;4939464;29;20578;-68
2022/05/13 10:33:59;;;;;;;1999.90;999.90;;;;;;;;;;4936305;29;20367;-68
2022/05/13 10:36:46;;;;;;;1999.90;999.90;;;;;;;;;;4935319;29;20208;-64
2022/05/13 10:39:35;;;;;;;1999.90;999.90;;;;;;;;;;4936793;29;20215;-67
2022/05/13 10:42:21;;;;;;;1999.90;999.90;;;;;;;;;;4944799;29;20207;-67
2022/05/13 10:45:09;;;;;;;1999.90;999.90;;;;;;;;;;4938977;29;21480;-67
2022/05/13 10:47:56;;;;;;;1999.90;999.90;;;;;;;;;;4942838;29;20272;-67
2022/05/13 10:50:48;;;;;;;1999.90;999.90;;;;;;;;;;4936590;29;20974;-66
2022/05/13 10:53:37;;;;;;;1999.90;999.90;;;;;;;;;;4952195;29;20238;-66
2022/05/13 10:56:24;;;;;;;1999.90;999.90;;;;;;;;;;4944653;29;20209;-67
2022/05/13 10:59:16;;;;;;;1999.90;999.90;;;;;;;;;;4940078;29;20233;-68
2022/05/13 11:02:06;;;;;;;1999.90;999.90;;;;;;;;;;4954612;29;20204;-67
2022/05/13 11:04:56;;;;;;;1999.90;999.90;;;;;;;;;;4935536;29;20250;-67
2022/05/13 11:07:48;;;;;;;1999.90;999.90;;;;;;;;;;4934406;29;20211;-67
2022/05/13 11:10:35;;;;;;;1999.90;999.90;;;;;;;;;;4933223;29;20224;-67
2022/05/13 11:13:24;;;;;;;1999.90;999.90;;;;;;;;;;4936579;29;20742;-67
2022/05/13 11:16:13;;;;;;;1999.90;999.90;;;;;;;;;;4931695;29;20211;-67
2022/05/13 11:19:02;;;;;;;1999.90;999.90;;;;;;;;;;4953745;28;20212;-67
2022/05/13 11:21:51;;;;;;;1999.90;999.90;;;;;;;;;;4950516;29;20345;-66
2022/05/13 11:27:54;;;;;;;1999.90;999.90;;;;;;;;;;4949904;29;20478;-66
2022/05/13 11:30:42;;;;;;;1999.90;999.90;;;;;;;;;;4940107;29;20237;-66
2022/05/13 11:33:31;;;;;;;1999.90;999.90;;;;;;;;;;4929532;29;20240;-67
2022/05/13 11:36:24;;;;;;;1999.90;999.90;;;;;;;;;;4931222;29;20261;-67
2022/05/13 11:39:15;;;;;;;1999.90;999.90;;;;;;;;;;4932658;29;20703;-68
2022/05/13 11:42:06;;;;;;;1999.90;999.90;;;;;;;;;;4934410;29;20436;-67
2022/05/13 11:44:55;;;;;;;1999.90;999.90;;;;;;;;;;4929720;29;20225;-67
2022/05/13 11:47:43;;;;;;;1999.90;999.90;;;;;;;;;;4937847;29;20213;-69
2022/05/13 11:50:30;;;;;;;1999.90;999.90;;;;;;;;;;4925003;29;20297;-67
2022/05/13 11:53:30;;;;;;;1999.90;999.90;;;;;;;;;;4930768;29;20237;-67
2022/05/13 11:56:31;;;;;;;1999.90;999.90;;;;;;;;;;4948194;29;20207;-68
2022/05/13 11:59:35;;;;;;;1999.90;999.90;;;;;;;;;;4950570;29;20227;-68
2022/05/13 12:02:33;;;;;;;1999.90;999.90;;;;;;;;;;4939676;29;20219;-68
2022/05/13 12:05:29;;;;;;;1999.90;999.90;;;;;;;;;;4938621;29;20241;-68
2022/05/13 12:08:18;;;;;;;1999.90;999.90;;;;;;;;;;4931077;29;20973;-69
2022/05/13 12:11:13;;;;;;;1999.90;999.90;;;;;;;;;;4939000;29;20219;-66
2022/05/13 12:14:06;;;;;;;1999.90;999.90;;;;;;;;;;4943130;29;20232;-67
2022/05/13 12:16:56;;;;;;;1999.90;999.90;;;;;;;;;;4935866;29;20209;-67
2022/05/13 12:19:48;;;;;;;1999.90;999.90;;;;;;;;;;4933947;29;20409;-67
2022/05/13 12:22:37;;;;;;;1999.90;999.90;;;;;;;;;;4931548;29;20241;-67
2022/05/13 12:25:41;;;;;;;1999.90;999.90;;;;;;;;;;4942822;29;20221;-67
2022/05/13 12:28:31;;;;;;;1999.90;999.90;;;;;;;;;;4914648;29;20217;-67
2022/05/13 12:31:32;;;;;;;1999.90;999.90;;;;;;;;;;4931669;29;20217;-66
2022/05/13 12:37:38;;;;;;;1999.90;999.90;;;;;;;;;;4933017;29;22076;-67
2022/05/13 12:40:29;;;;;;;1999.90;999.90;;;;;;;;;;4941409;29;20205;-65
2022/05/13 12:43:15;;;;;;;1999.90;999.90;;;;;;;;;;4945068;29;20228;-67
2022/05/13 12:46:04;;;;;;;1999.90;999.90;;;;;;;;;;4919408;29;20225;-66
2022/05/13 12:49:02;;;;;;;1999.90;999.90;;;;;;;;;;4919166;29;20227;-67
2022/05/13 12:51:52;;;;;;;1999.90;999.90;;;;;;;;;;4919520;29;20243;-67
2022/05/13 12:54:43;;;;;;;1999.90;999.90;;;;;;;;;;4919383;29;20572;-66
2022/05/13 12:57:31;;;;;;;1999.90;999.90;;;;;;;;;;4919268;29;20217;-67
2022/05/13 13:00:19;;;;;;;1999.90;999.90;;;;;;;;;;4917733;29;20407;-66
2022/05/13 13:03:06;;;;;;;1999.90;999.90;;;;;;;;;;4919370;29;20721;-66
2022/05/13 13:05:57;;;;;;;1999.90;999.90;;;;;;;;;;4918865;29;20228;-67
2022/05/13 13:08:42;;;;;;;1999.90;999.90;;;;;;;;;;4918971;29;20733;-66
2022/05/13 13:11:31;;;;;;;1999.90;999.90;;;;;;;;;;4919205;29;20206;-67
2022/05/13 13:14:18;;;;;;;1999.90;999.90;;;;;;;;;;4919366;29;20588;-67
2022/05/13 13:17:04;;;;;;;1999.90;999.90;;;;;;;;;;4919037;29;20207;-67
2022/05/13 13:19:49;;;;;;;1999.90;999.90;;;;;;;;;;4919264;29;20210;-66
2022/05/13 13:22:38;;;;;;;1999.90;999.90;;;;;;;;;;4918728;29;20237;-68
2022/05/13 13:25:25;;;;;;;1999.90;999.90;;;;;;;;;;4917644;29;20444;-67
2022/05/13 13:28:13;;;;;;;1999.90;999.90;;;;;;;;;;4918477;29;20241;-68
2022/05/13 13:30:59;;;;;;;1999.90;999.90;;;;;;;;;;4918701;29;20753;-68
2022/05/13 13:33:46;;;;;;;1999.90;999.90;;;;;;;;;;4918849;29;20353;-67
2022/05/13 13:36:32;;;;;;;1999.90;999.90;;;;;;;;;;4918741;29;20681;-67
2022/05/13 13:39:17;;;;;;;1999.90;999.90;;;;;;;;;;4918507;29;20326;-67
2022/05/13 13:42:05;;;;;;;1999.90;999.90;;;;;;;;;;4918195;29;20214;-66
2022/05/13 13:45:06;;;;;;;1999.90;999.90;;;;;;;;;;4918444;29;20206;-69
2022/05/13 13:47:52;;;;;;;1999.90;999.90;;;;;;;;;;4918111;29;20210;-66
2022/05/13 13:50:45;;;;;;;1999.90;999.90;;;;;;;;;;4918340;29;20338;-68
2022/05/13 13:53:31;;;;;;;1999.90;999.90;;;;;;;;;;4918283;29;20286;-68
2022/05/13 13:56:19;;;;;;;1999.90;999.90;;;;;;;;;;4918402;29;20202;-68
2022/05/13 13:59:11;;;;;;;1999.90;999.90;;;;;;;;;;4918087;29;20573;-68
2022/05/13 14:01:57;;;;;;;1999.90;999.90;;;;;;;;;;4918015;29;20250;-68
2022/05/13 14:04:49;;;;;;;1999.90;999.90;;;;;;;;;;4917978;29;20210;-68
2022/05/13 14:07:35;;;;;;;1999.90;999.90;;;;;;;;;;4917908;29;20236;-68
2022/05/13 14:10:22;;;;;;;1999.90;999.90;;;;;;;;;;4918040;29;20708;-68
2022/05/13 14:13:10;;;;;;;1999.90;999.90;;;;;;;;;;4917872;29;20291;-67
2022/05/13 14:16:02;;;;;;;1999.90;999.90;;;;;;;;;;4917361;29;20959;-68
2022/05/13 14:18:50;;;;;;;1999.90;999.90;;;;;;;;;;4917646;29;20214;-68
2022/05/13 14:21:35;;;;;;;1999.90;999.90;;;;;;;;;;4917757;29;20217;-68
2022/05/13 14:24:30;;;;;;;1999.90;999.90;;;;;;;;;;4917996;29;20238;-68
2022/05/13 14:27:20;;;;;;;1999.90;999.90;;;;;;;;;;4917577;29;20270;-68
2022/05/13 14:30:06;;;;;;;1999.90;999.90;;;;;;;;;;4917676;29;20217;-67
2022/05/13 14:32:56;;;;;;;1999.90;999.90;;;;;;;;;;4917740;29;20229;-68
2022/05/13 14:35:43;;;;;;;1999.90;999.90;;;;;;;;;;4917527;29;20210;-68
2022/05/13 14:41:40;;;;;;;1999.90;999.90;;;;;;;;;;4917165;29;20201;-68
2022/05/13 14:44:27;;;;;;;1999.90;999.90;;;;;;;;;;4917638;29;20285;-68
2022/05/13 14:47:17;;;;;;;1999.90;999.90;;;;;;;;;;4917206;29;20230;-67
2022/05/13 14:50:02;;;;;;;1999.90;999.90;;;;;;;;;;4916970;29;20220;-68
2022/05/13 14:52:51;;;;;;;1999.90;999.90;;;;;;;;;;4916600;29;20226;-67
2022/05/13 14:55:42;;;;;;;1999.90;999.90;;;;;;;;;;4915941;29;20431;-68
2022/05/13 14:58:29;;;;;;;1999.90;999.90;;;;;;;;;;4916939;29;20237;-68
2022/05/13 15:01:19;;;;;;;1999.90;999.90;;;;;;;;;;4917127;29;20213;-68
2022/05/13 15:04:13;;;;;;;1999.90;999.90;;;;;;;;;;4916897;29;20246;-68
2022/05/13 15:07:12;;;;;;;1999.90;999.90;;;;;;;;;;4916708;29;20233;-68
2022/05/13 15:09:58;;;;;;;1999.90;999.90;;;;;;;;;;4916805;29;20210;-68
2022/05/13 15:12:44;;;;;;;1999.90;999.90;;;;;;;;;;4917598;29;20226;-67
2022/05/13 15:15:29;;;;;;;1999.90;999.90;;;;;;;;;;4917548;29;20711;-67
2022/05/13 15:18:16;;;;;;;1999.90;999.90;;;;;;;;;;4916635;29;20206;-66
2022/05/13 15:21:01;;;;;;;1999.90;999.90;;;;;;;;;;4915820;29;21039;-66
2022/05/13 15:23:47;;;;;;;1999.90;999.90;;;;;;;;;;4916578;29;20244;-67
2022/05/13 15:26:33;;;;;;;1999.90;999.90;;;;;;;;;;4916875;29;20248;-67
2022/05/13 15:29:18;;;;;;;1999.90;999.90;;;;;;;;;;4916901;29;20210;-67
2022/05/13 15:32:04;;;;;;;1999.90;999.90;;;;;;;;;;4916791;29;20210;-66
2022/05/13 15:34:49;;;;;;;1999.90;999.90;;;;;;;;;;4916714;29;20704;-67
2022/05/13 15:37:36;;;;;;;1999.90;999.90;;;;;;;;;;4916579;29;20708;-66
2022/05/13 15:40:22;;;;;;;1999.90;999.90;;;;;;;;;;4916304;29;20217;-66
2022/05/13 15:43:08;;;;;;;1999.90;999.90;;;;;;;;;;4916652;29;20228;-67
2022/05/13 15:45:54;;;;;;;1999.90;999.90;;;;;;;;;;4916400;29;20546;-67
2022/05/13 15:48:39;;;;;;;1999.90;999.90;;;;;;;;;;4915891;29;20297;-67
2022/05/13 15:54:27;;;;;;;1999.90;999.90;;;;;;;;;;4915993;29;20221;-67
2022/05/13 15:57:12;;;;;;;1999.90;999.90;;;;;;;;;;4916090;29;20209;-67
2022/05/13 15:59:58;;;;;;;1999.90;999.90;;;;;;;;;;4914599;29;20419;-67
2022/05/13 16:02:44;;;;;;;1999.90;999.90;;;;;;;;;;4916181;29;20595;-68
2022/05/13 16:05:31;;;;;;;1999.90;999.90;;;;;;;;;;4919294;29;20798;-67
2022/05/13 16:08:16;;;;;;;1999.90;999.90;;;;;;;;;;4919744;29;20201;-67
2022/05/13 16:11:01;;;;;;;1999.90;999.90;;;;;;;;;;4920013;29;20256;-68